createdAt,value
2024-05-09T00:00:47.464Z,14.20
2024-05-09T00:03:17.352Z,14.10
2024-05-09T00:05:49.767Z,14.10
2024-05-09T00:08:19.537Z,14.10
2024-05-09T00:10:49.527Z,14.10
2024-05-09T00:13:19.281Z,14.10
2024-05-09T00:15:48.979Z,14.10
2024-05-09T00:18:18.899Z,14.10
2024-05-09T00:20:51.461Z,14.00
2024-05-09T00:23:21.348Z,14.00
2024-05-09T00:25:51.052Z,14.00
2024-05-09T00:28:20.913Z,14.00
2024-05-09T00:30:51.019Z,14.00
2024-05-09T00:33:21.493Z,13.90
2024-05-09T00:35:53.899Z,13.90
2024-05-09T00:38:23.677Z,13.90
2024-05-09T00:40:53.672Z,13.80
2024-05-09T00:43:23.383Z,13.80
2024-05-09T00:45:54.982Z,13.80
2024-05-09T00:48:24.789Z,13.80
2024-05-09T00:50:57.769Z,13.70
2024-05-09T00:53:27.952Z,13.70
2024-05-09T00:55:59.799Z,13.70
2024-05-09T00:58:31.604Z,13.70
2024-05-09T01:01:02.797Z,13.70
2024-05-09T01:03:32.862Z,13.70
2024-05-09T01:06:05.354Z,13.60
2024-05-09T01:08:35.253Z,13.60
2024-05-09T01:11:05.077Z,13.60
2024-05-09T01:13:34.831Z,13.60
2024-05-09T01:16:05.248Z,13.60
2024-05-09T01:18:35.244Z,13.50
2024-05-09T01:21:09.502Z,13.50
2024-05-09T01:23:41.901Z,13.50
2024-05-09T01:26:11.718Z,13.50
2024-05-09T01:28:41.567Z,13.40
2024-05-09T01:31:15.776Z,13.50
2024-05-09T01:33:46.156Z,13.40
2024-05-09T01:36:16.065Z,13.40
2024-05-09T01:38:48.386Z,13.40
2024-05-09T01:41:18.131Z,13.30
2024-05-09T01:43:47.892Z,13.30
2024-05-09T01:46:19.379Z,13.30
2024-05-09T01:48:49.687Z,13.30
2024-05-09T01:51:19.675Z,13.30
2024-05-09T01:53:52.005Z,13.20
2024-05-09T01:56:21.739Z,13.30
2024-05-09T01:58:51.534Z,13.20
2024-05-09T02:01:21.240Z,13.20
2024-05-09T02:03:51.091Z,13.20
2024-05-09T02:06:20.972Z,13.20
2024-05-09T02:08:53.295Z,13.20
2024-05-09T02:11:23.042Z,13.10
2024-05-09T02:13:52.800Z,13.10
2024-05-09T02:16:22.509Z,13.10
2024-05-09T02:18:52.490Z,13.10
2024-05-09T02:21:22.292Z,13.00
2024-05-09T02:23:54.678Z,13.00
2024-05-09T02:26:24.414Z,13.10
2024-05-09T02:28:57.265Z,13.00
2024-05-09T02:31:27.052Z,13.00
2024-05-09T02:33:57.027Z,13.00
2024-05-09T02:36:24.215Z,13.00
2024-05-09T02:38:56.528Z,13.00
2024-05-09T02:41:23.662Z,13.00
2024-05-09T02:43:53.463Z,13.00
2024-05-09T02:46:20.657Z,13.00
2024-05-09T02:48:50.400Z,13.00
2024-05-09T02:51:17.714Z,12.90
2024-05-09T02:53:47.453Z,12.90
2024-05-09T02:56:17.232Z,12.90
2024-05-09T02:58:46.982Z,12.90
2024-05-09T03:01:16.803Z,12.90
2024-05-09T03:03:48.534Z,12.90
2024-05-09T03:06:15.752Z,12.90
2024-05-09T03:08:47.753Z,12.80
2024-05-09T03:11:24.548Z,12.80
2024-05-09T03:13:54.610Z,12.80
2024-05-09T03:16:21.751Z,12.80
2024-05-09T03:18:51.640Z,12.80
2024-05-09T03:21:18.897Z,12.70
2024-05-09T03:23:48.721Z,12.70
2024-05-09T03:26:17.260Z,12.70
2024-05-09T03:28:49.697Z,12.70
2024-05-09T03:31:18.803Z,12.70
2024-05-09T03:33:48.645Z,12.70
2024-05-09T03:36:15.941Z,12.70
2024-05-09T03:38:45.779Z,12.70
2024-05-09T03:41:15.827Z,12.70
2024-05-09T03:43:47.102Z,12.70
2024-05-09T03:46:16.880Z,12.70
2024-05-09T03:48:44.107Z,12.60
2024-05-09T03:51:14.010Z,12.60
2024-05-09T03:53:41.247Z,12.60
2024-05-09T03:56:11.098Z,12.60
2024-05-09T03:58:38.249Z,12.60
2024-05-09T04:01:10.672Z,12.60
2024-05-09T04:03:37.981Z,12.60
2024-05-09T04:06:08.282Z,12.60
2024-05-09T04:08:35.480Z,12.60
2024-05-09T04:11:05.494Z,12.50
2024-05-09T04:13:32.618Z,12.50
2024-05-09T04:16:02.383Z,12.50
2024-05-09T04:18:32.221Z,12.50
2024-05-09T04:21:02.250Z,12.50
2024-05-09T04:23:29.797Z,12.50
2024-05-09T04:25:59.624Z,12.50
2024-05-09T04:28:26.803Z,12.50
2024-05-09T04:30:56.493Z,12.50
2024-05-09T04:33:23.947Z,12.50
2024-05-09T04:35:56.516Z,12.50
2024-05-09T04:38:23.894Z,12.60
2024-05-09T04:40:53.702Z,12.50
2024-05-09T04:43:21.346Z,12.50
2024-05-09T04:45:51.043Z,12.50
2024-05-09T04:48:18.353Z,12.50
2024-05-09T04:50:48.283Z,12.50
2024-05-09T04:53:18.489Z,12.60
2024-05-09T04:55:48.575Z,12.60
2024-05-09T04:58:15.745Z,12.60
2024-05-09T05:00:45.552Z,12.60
2024-05-09T05:03:15.269Z,12.60
2024-05-09T05:05:46.928Z,12.70
2024-05-09T05:08:18.994Z,12.70
2024-05-09T05:10:50.054Z,12.70
2024-05-09T05:13:20.161Z,12.80
2024-05-09T05:15:52.057Z,12.80
2024-05-09T05:18:19.683Z,12.80
2024-05-09T05:20:49.892Z,12.80
2024-05-09T05:23:20.544Z,12.90
2024-05-09T05:25:52.818Z,12.90
2024-05-09T05:28:20.754Z,12.90
2024-05-09T05:30:50.707Z,13.00
2024-05-09T05:33:19.290Z,13.00
2024-05-09T05:35:49.576Z,13.00
2024-05-09T05:38:21.949Z,13.10
2024-05-09T05:40:53.666Z,13.20
2024-05-09T05:43:20.831Z,13.20
2024-05-09T05:45:50.619Z,13.20
2024-05-09T05:48:18.517Z,13.30
2024-05-09T05:50:48.747Z,13.30
2024-05-09T05:53:15.988Z,13.40
2024-05-09T05:55:48.537Z,13.40
2024-05-09T05:58:15.854Z,13.50
2024-05-09T06:00:45.734Z,13.50
2024-05-09T06:03:13.703Z,13.50
2024-05-09T06:05:45.915Z,13.60
2024-05-09T06:08:13.310Z,13.70
2024-05-09T06:10:43.318Z,13.70
2024-05-09T06:13:14.094Z,13.70
2024-05-09T06:15:44.412Z,13.80
2024-05-09T06:18:12.549Z,13.90
2024-05-09T06:20:44.062Z,13.90
2024-05-09T06:23:12.192Z,14.00
2024-05-09T06:25:42.886Z,14.00
2024-05-09T06:28:12.986Z,14.10
2024-05-09T06:30:43.470Z,14.10
2024-05-09T06:33:13.798Z,14.20
2024-05-09T06:35:45.853Z,14.20
2024-05-09T06:38:13.583Z,14.30
2024-05-09T06:40:44.635Z,14.30
2024-05-09T06:43:17.710Z,14.40
2024-05-09T06:45:49.545Z,14.40
2024-05-09T06:48:18.331Z,14.50
2024-05-09T06:50:51.179Z,14.50
2024-05-09T06:53:21.595Z,14.60
2024-05-09T06:55:53.182Z,14.60
2024-05-09T06:58:22.982Z,14.70
2024-05-09T07:00:52.810Z,14.70
2024-05-09T07:03:20.183Z,14.80
2024-05-09T07:05:50.914Z,14.80
2024-05-09T07:08:18.671Z,14.80
2024-05-09T07:10:48.854Z,14.80
2024-05-09T07:13:16.220Z,14.80
2024-05-09T07:15:48.577Z,14.90
2024-05-09T07:18:18.257Z,15.00
2024-05-09T07:20:50.612Z,15.00
2024-05-09T07:23:18.441Z,15.00
2024-05-09T07:25:48.622Z,15.10
2024-05-09T07:28:17.079Z,15.20
2024-05-09T07:30:49.558Z,15.20
2024-05-09T07:33:17.083Z,15.30
2024-05-09T07:35:47.027Z,15.30
2024-05-09T07:38:14.287Z,15.40
2024-05-09T07:40:44.254Z,15.40
2024-05-09T07:43:11.896Z,15.40
2024-05-09T07:45:50.651Z,15.50
2024-05-09T07:52:45.947Z,15.50
2024-05-09T07:53:48.808Z,15.60
2024-05-09T07:56:23.325Z,15.60
2024-05-09T07:58:52.344Z,15.70
2024-05-09T08:01:22.631Z,15.70
2024-05-09T08:03:53.529Z,15.80
2024-05-09T08:06:23.656Z,15.80
2024-05-09T08:08:53.850Z,15.90
2024-05-09T08:11:23.916Z,16.00
2024-05-09T08:13:51.186Z,16.10
2024-05-09T08:16:21.084Z,16.20
2024-05-09T08:18:48.508Z,16.20
2024-05-09T08:21:21.157Z,16.30
2024-05-09T08:23:48.272Z,16.40
2024-05-09T08:26:17.979Z,16.40
2024-05-09T08:28:45.282Z,16.50
2024-05-09T08:31:15.321Z,16.50
2024-05-09T08:33:47.259Z,16.60
2024-05-09T08:36:20.111Z,16.60
2024-05-09T08:38:47.320Z,16.60
2024-05-09T08:41:17.965Z,16.70
2024-05-09T08:43:45.192Z,16.80
2024-05-09T08:46:15.745Z,16.80
2024-05-09T08:48:45.768Z,16.90
2024-05-09T08:51:17.068Z,17.00
2024-05-09T08:53:46.858Z,17.00
2024-05-09T08:56:18.961Z,17.00
2024-05-09T08:58:46.575Z,17.00
2024-05-09T09:01:17.623Z,17.00
2024-05-09T09:03:45.890Z,17.10
2024-05-09T09:06:18.202Z,17.20
2024-05-09T09:08:48.765Z,17.20
2024-05-09T09:11:18.538Z,17.20
2024-05-09T09:13:45.710Z,17.30
2024-05-09T09:16:16.354Z,17.30
2024-05-09T09:18:44.863Z,17.30
2024-05-09T09:21:14.835Z,17.30
2024-05-09T09:23:42.037Z,17.40
2024-05-09T09:26:18.610Z,17.40
2024-05-09T09:28:45.778Z,17.40
2024-05-09T09:31:19.342Z,17.40
2024-05-09T09:33:46.836Z,17.50
2024-05-09T09:36:18.440Z,17.60
2024-05-09T09:38:47.608Z,17.60
2024-05-09T09:41:21.176Z,17.70
2024-05-09T09:43:48.450Z,17.80
2024-05-09T09:46:19.385Z,17.90
2024-05-09T09:48:48.075Z,17.90
2024-05-09T09:51:18.379Z,17.90
2024-05-09T09:53:47.452Z,17.90
2024-05-09T09:56:21.281Z,18.00
2024-05-09T09:58:48.938Z,18.00
2024-05-09T10:01:18.712Z,18.00
2024-05-09T10:03:46.170Z,18.10
2024-05-09T10:06:16.901Z,18.10
2024-05-09T10:08:46.887Z,18.10
2024-05-09T10:11:22.720Z,18.20
2024-05-09T10:13:51.481Z,18.10
2024-05-09T10:16:24.795Z,18.20
2024-05-09T10:18:52.315Z,18.20
2024-05-09T10:21:23.285Z,18.20
2024-05-09T10:24:00.547Z,18.20
2024-05-09T10:26:36.869Z,18.20
2024-05-09T10:29:13.749Z,18.20
2024-05-09T10:31:45.038Z,18.20
2024-05-09T10:34:23.029Z,18.20
2024-05-09T10:36:56.451Z,18.20
2024-05-09T10:39:25.317Z,18.20
2024-05-09T10:41:57.674Z,18.20
2024-05-09T10:44:24.804Z,18.20
2024-05-09T10:46:54.960Z,18.20
2024-05-09T10:49:22.560Z,18.30
2024-05-09T10:51:52.586Z,18.30
2024-05-09T10:54:19.717Z,18.40
2024-05-09T10:56:49.466Z,18.40
2024-05-09T10:59:19.202Z,18.50
2024-05-09T11:01:49.094Z,18.50
2024-05-09T11:04:16.686Z,18.60
2024-05-09T11:06:49.190Z,18.60
2024-05-09T11:09:16.783Z,18.60
2024-05-09T11:11:46.677Z,18.70
2024-05-09T11:14:13.934Z,18.70
2024-05-09T11:16:46.249Z,18.70
2024-05-09T11:19:14.114Z,18.80
2024-05-09T11:21:44.210Z,18.80
2024-05-09T11:24:11.910Z,18.90
2024-05-09T11:26:41.806Z,18.90
2024-05-09T11:29:08.946Z,18.90
2024-05-09T11:31:50.739Z,18.90
2024-05-09T11:34:18.060Z,18.80
2024-05-09T11:36:47.886Z,18.80
2024-05-09T11:39:15.128Z,18.80
2024-05-09T11:41:44.894Z,18.90
2024-05-09T11:44:13.112Z,18.90
2024-05-09T11:46:42.901Z,18.90
2024-05-09T11:49:12.910Z,19.00
2024-05-09T11:51:42.801Z,19.00
2024-05-09T11:54:09.985Z,19.10
2024-05-09T11:56:39.788Z,19.10
2024-05-09T11:59:06.915Z,19.10
2024-05-09T12:01:36.641Z,19.10
2024-05-09T12:04:04.349Z,19.00
2024-05-09T12:06:36.917Z,19.00
2024-05-09T12:09:04.153Z,19.00
2024-05-09T12:11:33.992Z,19.00
2024-05-09T12:14:01.228Z,19.00
2024-05-09T12:16:31.232Z,19.00
2024-05-09T12:18:58.807Z,19.00
2024-05-09T12:21:28.619Z,19.10
2024-05-09T12:23:58.409Z,19.10
2024-05-09T12:26:28.511Z,19.00
2024-05-09T12:28:55.623Z,18.90
2024-05-09T12:31:25.489Z,18.90
2024-05-09T12:33:54.494Z,18.90
2024-05-09T12:36:24.296Z,18.90
2024-05-09T12:38:51.358Z,18.90
2024-05-09T12:41:23.633Z,18.80
2024-05-09T12:43:50.773Z,18.90
2024-05-09T12:46:21.247Z,18.90
2024-05-09T12:48:48.600Z,18.80
2024-05-09T12:51:18.570Z,18.90
2024-05-09T12:53:45.701Z,18.90
2024-05-09T12:56:15.497Z,18.90
2024-05-09T12:58:45.241Z,19.00
2024-05-09T13:01:15.014Z,19.00
2024-05-09T13:03:42.467Z,19.00
2024-05-09T13:06:12.468Z,19.00
2024-05-09T13:08:39.638Z,19.10
2024-05-09T13:11:09.342Z,19.10
2024-05-09T13:13:36.486Z,19.20
2024-05-09T13:16:09.374Z,19.20
2024-05-09T13:18:36.648Z,19.30
2024-05-09T13:21:06.536Z,19.40
2024-05-09T13:23:33.632Z,19.40
2024-05-09T13:26:03.259Z,19.60
2024-05-09T13:28:32.249Z,19.70
2024-05-09T13:31:02.121Z,19.90
2024-05-09T13:33:32.000Z,20.10
2024-05-09T13:36:01.886Z,20.20
2024-05-09T13:38:28.984Z,20.40
2024-05-09T13:40:58.725Z,20.40
2024-05-09T13:43:26.198Z,20.50
2024-05-09T13:45:57.415Z,20.60
2024-05-09T13:48:24.818Z,20.70
2024-05-09T13:50:57.331Z,20.70
2024-05-09T13:53:25.268Z,20.70
2024-05-09T13:55:55.036Z,20.80
2024-05-09T13:58:23.544Z,20.80
2024-05-09T14:00:53.603Z,20.80
2024-05-09T14:03:21.360Z,20.70
2024-05-09T14:05:52.466Z,20.70
2024-05-09T14:08:22.997Z,20.70
2024-05-09T14:10:53.685Z,20.70
2024-05-09T14:13:21.171Z,20.90
2024-05-09T14:15:51.305Z,21.10
2024-05-09T14:18:18.726Z,21.10
2024-05-09T14:20:48.445Z,21.40
2024-05-09T14:23:17.812Z,21.60
2024-05-09T14:25:52.903Z,21.80
2024-05-09T14:28:20.581Z,22.00
2024-05-09T14:30:50.472Z,22.10
2024-05-09T14:33:23.697Z,22.40
2024-05-09T14:35:53.513Z,22.50
2024-05-09T14:38:20.580Z,22.70
2024-05-09T14:40:53.302Z,22.80
2024-05-09T14:43:20.784Z,23.00
2024-05-09T14:45:50.608Z,23.20
2024-05-09T14:48:19.938Z,23.40
2024-05-09T14:50:50.247Z,23.50
2024-05-09T14:53:17.537Z,23.70
2024-05-09T14:55:49.417Z,23.80
2024-05-09T14:58:19.493Z,24.00
2024-05-09T15:00:51.353Z,24.20
2024-05-09T15:03:20.239Z,24.30
2024-05-09T15:05:51.496Z,24.50
2024-05-09T15:08:19.567Z,24.70
2024-05-09T15:10:50.460Z,24.80
2024-05-09T15:13:21.284Z,24.90
2024-05-09T15:15:51.423Z,25.00
2024-05-09T15:18:18.878Z,25.10
2024-05-09T15:20:49.043Z,25.20
2024-05-09T15:23:28.837Z,25.30
2024-05-09T15:25:55.952Z,25.50
2024-05-09T15:28:25.967Z,25.50
2024-05-09T15:30:53.119Z,25.50
2024-05-09T15:33:22.863Z,25.60
2024-05-09T15:35:51.475Z,25.70
2024-05-09T15:38:21.480Z,25.80
2024-05-09T15:40:51.511Z,25.90
2024-05-09T15:43:21.617Z,25.90
2024-05-09T15:45:51.758Z,25.90
2024-05-09T15:48:19.333Z,25.90
2024-05-09T15:50:49.277Z,26.00
2024-05-09T15:53:16.540Z,26.10
2024-05-09T15:55:46.294Z,26.10
2024-05-09T15:58:16.278Z,26.30
2024-05-09T16:00:48.044Z,26.20
2024-05-09T16:03:16.886Z,26.40
2024-05-09T16:05:47.793Z,26.30
2024-05-09T16:08:15.601Z,26.30
2024-05-09T16:10:46.555Z,26.40
2024-05-09T16:13:17.654Z,26.40
2024-05-09T16:15:48.306Z,26.40
2024-05-09T16:18:15.738Z,26.50
2024-05-09T16:20:48.437Z,26.50
2024-05-09T16:23:17.608Z,26.60
2024-05-09T16:25:48.280Z,26.70
2024-05-09T16:28:19.159Z,26.70
2024-05-09T16:30:49.060Z,26.70
2024-05-09T16:33:19.459Z,26.80
2024-05-09T16:35:49.636Z,26.80
2024-05-09T16:38:16.835Z,26.90
2024-05-09T16:40:46.880Z,27.10
2024-05-09T16:43:14.193Z,27.10
2024-05-09T16:45:47.165Z,27.00
2024-05-09T16:48:14.844Z,26.80
2024-05-09T16:50:45.056Z,26.50
2024-05-09T16:53:13.636Z,26.30
2024-05-09T16:55:43.529Z,26.00
2024-05-09T16:58:12.368Z,25.70
2024-05-09T17:00:43.835Z,25.40
2024-05-09T17:03:15.725Z,25.00
2024-05-09T17:05:47.466Z,24.70
2024-05-09T17:08:16.678Z,24.30
2024-05-09T17:10:48.917Z,24.00
2024-05-09T17:13:16.857Z,23.70
2024-05-09T17:15:46.997Z,23.40
2024-05-09T17:18:19.652Z,23.00
2024-05-09T17:20:46.748Z,22.80
2024-05-09T17:23:17.123Z,22.50
2024-05-09T17:25:44.413Z,22.30
2024-05-09T17:28:14.451Z,22.10
2024-05-09T17:30:42.758Z,21.90
2024-05-09T17:33:13.828Z,21.70
2024-05-09T17:35:45.919Z,21.60
2024-05-09T17:38:15.934Z,21.50
2024-05-09T17:40:43.181Z,21.50
2024-05-09T17:43:12.996Z,21.50
2024-05-09T17:45:41.358Z,21.50
2024-05-09T17:48:12.507Z,21.40
2024-05-09T17:50:40.478Z,21.40
2024-05-09T17:53:13.427Z,21.40
2024-05-09T17:55:40.838Z,21.40
2024-05-09T17:58:11.148Z,21.30
2024-05-09T18:00:41.263Z,21.30
2024-05-09T18:03:14.373Z,21.20
2024-05-09T18:05:43.515Z,21.10
2024-05-09T18:08:16.918Z,21.10
2024-05-09T18:10:44.393Z,21.00
2024-05-09T18:13:14.611Z,21.00
2024-05-09T18:15:41.997Z,20.90
2024-05-09T18:18:12.348Z,20.90
2024-05-09T18:20:44.150Z,20.80
2024-05-09T18:23:20.495Z,20.80
2024-05-09T18:25:48.187Z,20.60
2024-05-09T18:28:18.220Z,20.60
2024-05-09T18:30:45.566Z,20.50
2024-05-09T18:33:16.346Z,20.40
2024-05-09T18:35:44.836Z,20.40
2024-05-09T18:38:14.717Z,20.30
2024-05-09T18:40:47.197Z,20.30
2024-05-09T18:43:20.200Z,20.20
2024-05-09T18:45:51.081Z,20.20
2024-05-09T18:48:21.913Z,20.00
2024-05-09T18:50:49.405Z,20.00
2024-05-09T18:53:19.243Z,20.00
2024-05-09T18:55:48.992Z,19.90
2024-05-09T18:58:19.258Z,19.90
2024-05-09T19:00:49.298Z,19.90
2024-05-09T19:03:21.053Z,19.80
2024-05-09T19:05:51.112Z,19.80
2024-05-09T19:08:18.278Z,19.80
2024-05-09T19:10:48.212Z,19.70
2024-05-09T19:13:18.071Z,19.70
2024-05-09T19:15:47.897Z,19.60
2024-05-09T19:18:15.806Z,19.60
2024-05-09T19:20:46.003Z,19.50
2024-05-09T19:23:13.266Z,19.50
2024-05-09T19:25:43.299Z,19.40
2024-05-09T19:28:10.629Z,19.40
2024-05-09T19:30:43.407Z,19.30
2024-05-09T19:33:12.576Z,19.30
2024-05-09T19:35:43.802Z,19.30
2024-05-09T19:38:11.953Z,19.20
2024-05-09T19:40:41.880Z,19.20
2024-05-09T19:43:09.409Z,19.20
2024-05-09T19:45:42.093Z,19.10
2024-05-09T19:48:09.405Z,19.10
2024-05-09T19:50:43.378Z,19.10
2024-05-09T19:53:12.433Z,19.00
2024-05-09T19:55:42.606Z,18.90
2024-05-09T19:58:10.645Z,18.90
2024-05-09T20:00:44.548Z,18.80
2024-05-09T20:03:13.338Z,18.80
2024-05-09T20:05:45.354Z,18.70
2024-05-09T20:08:13.380Z,18.70
2024-05-09T20:10:43.291Z,18.60
2024-05-09T20:13:10.508Z,18.60
2024-05-09T20:15:42.962Z,18.60
2024-05-09T20:18:10.324Z,18.50
2024-05-09T20:20:42.959Z,18.50
2024-05-09T20:23:12.628Z,18.40
2024-05-09T20:25:42.679Z,18.40
2024-05-09T20:28:10.553Z,18.40
2024-05-09T20:30:43.224Z,18.30
2024-05-09T20:33:10.738Z,18.40
2024-05-09T20:35:40.628Z,18.30
2024-05-09T20:38:08.059Z,18.30
2024-05-09T20:40:39.413Z,18.30
2024-05-09T20:43:08.496Z,18.30
2024-05-09T20:45:39.028Z,18.20
2024-05-09T20:48:10.080Z,18.20
2024-05-09T20:50:42.161Z,18.20
2024-05-09T20:53:10.865Z,18.20
2024-05-09T20:55:40.902Z,18.20
2024-05-09T20:58:08.472Z,18.20
2024-05-09T21:00:42.215Z,18.20
2024-05-09T21:03:16.504Z,18.20
2024-05-09T21:05:48.262Z,18.10
2024-05-09T21:08:15.932Z,18.10
2024-05-09T21:10:45.761Z,18.10
2024-05-09T21:13:13.130Z,18.10
2024-05-09T21:15:42.954Z,18.10
2024-05-09T21:18:10.163Z,18.10
2024-05-09T21:20:42.505Z,18.10
2024-05-09T21:23:09.633Z,18.00
2024-05-09T21:25:39.362Z,18.00
2024-05-09T21:28:06.807Z,18.00
2024-05-09T21:30:41.732Z,18.00
2024-05-09T21:33:12.546Z,18.00
2024-05-09T21:35:46.468Z,18.00
2024-05-09T21:38:14.757Z,18.00
2024-05-09T21:40:45.603Z,17.90
2024-05-09T21:43:13.019Z,17.90
2024-05-09T21:45:42.967Z,17.90
2024-05-09T21:48:12.264Z,17.90
2024-05-09T21:50:42.650Z,17.90
2024-05-09T21:53:13.456Z,17.80
2024-05-09T21:55:44.271Z,17.80
2024-05-09T21:58:12.027Z,17.80
2024-05-09T22:00:42.964Z,17.80
2024-05-09T22:03:11.771Z,17.80
2024-05-09T22:05:44.385Z,17.80
2024-05-09T22:08:14.653Z,17.70
2024-05-09T22:10:44.669Z,17.70
2024-05-09T22:13:11.957Z,17.70
2024-05-09T22:15:42.465Z,17.70
2024-05-09T22:18:11.020Z,17.60
2024-05-09T22:20:45.352Z,17.60
2024-05-09T22:23:18.554Z,17.60
2024-05-09T22:25:48.332Z,17.60
2024-05-09T22:28:16.078Z,17.60
2024-05-09T22:30:47.183Z,17.60
2024-05-09T22:33:15.516Z,17.50
2024-05-09T22:35:45.505Z,17.50
2024-05-09T22:38:15.418Z,17.50
2024-05-09T22:40:48.581Z,17.50
2024-05-09T22:43:19.276Z,17.50
2024-05-09T22:45:49.903Z,17.40
2024-05-09T22:48:17.510Z,17.40
2024-05-09T22:50:47.605Z,17.40
2024-05-09T22:53:18.084Z,17.40
2024-05-09T22:55:47.833Z,17.30
2024-05-09T22:58:15.058Z,17.30
2024-05-09T23:00:44.860Z,17.30
2024-05-09T23:03:14.083Z,17.30
2024-05-09T23:05:43.887Z,17.30
2024-05-09T23:08:11.171Z,17.30
2024-05-09T23:10:43.598Z,17.30
2024-05-09T23:13:10.695Z,17.30
2024-05-09T23:15:40.565Z,17.20
2024-05-09T23:18:08.493Z,17.20
2024-05-09T23:20:39.969Z,17.20
2024-05-09T23:23:07.896Z,17.20
2024-05-09T23:25:37.775Z,17.20
2024-05-09T23:28:07.988Z,17.20
2024-05-09T23:30:40.268Z,17.20
2024-05-09T23:33:10.438Z,17.10
2024-05-09T23:35:40.784Z,17.10
2024-05-09T23:38:07.898Z,17.10
2024-05-09T23:40:40.339Z,17.10
2024-05-09T23:43:12.570Z,17.10
2024-05-09T23:45:43.329Z,17.10
2024-05-09T23:48:11.205Z,17.10
2024-05-09T23:50:41.630Z,17.00
2024-05-09T23:53:09.929Z,17.00
2024-05-09T23:55:40.627Z,17.00
2024-05-09T23:58:11.380Z,17.00
